sensor_id;sensor_type;location;lat;lon;timestamp;temperature;humidity
5130;DHT22;2583;50.946;6.954;2022-10-31T00:03:43;15.80;99.90
5130;DHT22;2583;50.946;6.954;2022-10-31T00:06:11;15.80;99.90
5130;DHT22;2583;50.946;6.954;2022-10-31T00:08:38;15.70;99.90
5130;DHT22;2583;50.946;6.954;2022-10-31T00:11:09;15.70;99.90
5130;DHT22;2583;50.946;6.954;2022-10-31T00:13:36;15.60;99.90
5130;DHT22;2583;50.946;6.954;2022-10-31T00:16:03;15.60;99.90
5130;DHT22;2583;50.946;6.954;2022-10-31T00:18:30;15.50;99.90
5130;DHT22;2583;50.946;6.954;2022-10-31T00:21:01;15.50;99.90
5130;DHT22;2583;50.946;6.954;2022-10-31T00:23:28;15.50;99.90
5130;DHT22;2583;50.946;6.954;2022-10-31T00:26:01;15.40;99.90
5130;DHT22;2583;50.946;6.954;2022-10-31T00:28:29;15.40;99.90
5130;DHT22;2583;50.946;6.954;2022-10-31T00:31:05;15.30;99.90
5130;DHT22;2583;50.946;6.954;2022-10-31T00:33:34;15.30;99.90
5130;DHT22;2583;50.946;6.954;2022-10-31T00:36:01;15.30;99.90
5130;DHT22;2583;50.946;6.954;2022-10-31T00:38:28;15.20;99.90
5130;DHT22;2583;50.946;6.954;2022-10-31T00:40:54;15.20;99.90
5130;DHT22;2583;50.946;6.954;2022-10-31T00:43:21;15.20;99.90
5130;DHT22;2583;50.946;6.954;2022-10-31T00:45:48;15.10;99.90
5130;DHT22;2583;50.946;6.954;2022-10-31T00:48:15;15.10;99.90
5130;DHT22;2583;50.946;6.954;2022-10-31T00:50:42;15.10;99.90
5130;DHT22;2583;50.946;6.954;2022-10-31T00:53:09;15.20;99.90
5130;DHT22;2583;50.946;6.954;2022-10-31T00:55:36;15.20;99.90
5130;DHT22;2583;50.946;6.954;2022-10-31T00:58:02;15.20;99.90
5130;DHT22;2583;50.946;6.954;2022-10-31T01:00:30;15.20;99.90
5130;DHT22;2583;50.946;6.954;2022-10-31T01:02:56;15.20;99.90
5130;DHT22;2583;50.946;6.954;2022-10-31T01:05:24;15.20;99.90
5130;DHT22;2583;50.946;6.954;2022-10-31T01:07:50;15.20;99.90
5130;DHT22;2583;50.946;6.954;2022-10-31T01:10:17;15.10;99.90
5130;DHT22;2583;50.946;6.954;2022-10-31T01:12:46;15.10;99.90
5130;DHT22;2583;50.946;6.954;2022-10-31T01:15:19;15.00;99.90
5130;DHT22;2583;50.946;6.954;2022-10-31T01:17:47;14.90;99.90
5130;DHT22;2583;50.946;6.954;2022-10-31T01:20:15;14.90;99.90
5130;DHT22;2583;50.946;6.954;2022-10-31T01:22:42;14.90;99.90
5130;DHT22;2583;50.946;6.954;2022-10-31T01:25:09;14.80;99.90
5130;DHT22;2583;50.946;6.954;2022-10-31T01:27:36;14.90;99.90
5130;DHT22;2583;50.946;6.954;2022-10-31T01:30:04;14.80;99.90
5130;DHT22;2583;50.946;6.954;2022-10-31T01:32:31;14.80;99.90
5130;DHT22;2583;50.946;6.954;2022-10-31T01:34:58;14.80;99.90
5130;DHT22;2583;50.946;6.954;2022-10-31T01:37:25;14.80;99.90
5130;DHT22;2583;50.946;6.954;2022-10-31T01:39:52;14.80;99.90
5130;DHT22;2583;50.946;6.954;2022-10-31T01:42:21;14.70;99.90
5130;DHT22;2583;50.946;6.954;2022-10-31T01:44:57;14.70;99.90
5130;DHT22;2583;50.946;6.954;2022-10-31T01:47:42;14.70;99.90
5130;DHT22;2583;50.946;6.954;2022-10-31T01:50:34;14.70;99.90
5130;DHT22;2583;50.946;6.954;2022-10-31T01:52:59;14.70;99.90
5130;DHT22;2583;50.946;6.954;2022-10-31T01:55:30;14.60;99.90
5130;DHT22;2583;50.946;6.954;2022-10-31T01:58:08;14.60;99.90
5130;DHT22;2583;50.946;6.954;2022-10-31T02:00:36;14.60;99.90
5130;DHT22;2583;50.946;6.954;2022-10-31T02:03:03;14.50;99.90
5130;DHT22;2583;50.946;6.954;2022-10-31T02:05:30;14.60;99.90
5130;DHT22;2583;50.946;6.954;2022-10-31T02:08:08;14.50;99.90
5130;DHT22;2583;50.946;6.954;2022-10-31T02:10:37;14.50;99.90
5130;DHT22;2583;50.946;6.954;2022-10-31T02:13:06;14.50;99.90
5130;DHT22;2583;50.946;6.954;2022-10-31T02:15:35;14.50;99.90
5130;DHT22;2583;50.946;6.954;2022-10-31T02:18:03;14.50;99.90
5130;DHT22;2583;50.946;6.954;2022-10-31T02:20:36;14.50;99.90
5130;DHT22;2583;50.946;6.954;2022-10-31T02:23:17;14.40;99.90
5130;DHT22;2583;50.946;6.954;2022-10-31T02:31:29;14.40;99.90
5130;DHT22;2583;50.946;6.954;2022-10-31T02:34:04;14.50;99.90
5130;DHT22;2583;50.946;6.954;2022-10-31T02:36:44;14.50;99.90
5130;DHT22;2583;50.946;6.954;2022-10-31T02:39:26;14.50;99.90
5130;DHT22;2583;50.946;6.954;2022-10-31T02:42:08;14.50;99.90
5130;DHT22;2583;50.946;6.954;2022-10-31T02:44:45;14.50;99.90
5130;DHT22;2583;50.946;6.954;2022-10-31T02:47:22;14.50;99.90
5130;DHT22;2583;50.946;6.954;2022-10-31T02:52:31;14.50;99.90
5130;DHT22;2583;50.946;6.954;2022-10-31T02:55:08;14.50;99.90
5130;DHT22;2583;50.946;6.954;2022-10-31T02:57:36;14.50;99.90
5130;DHT22;2583;50.946;6.954;2022-10-31T03:00:06;14.60;99.90
5130;DHT22;2583;50.946;6.954;2022-10-31T03:10:41;14.80;99.90
5130;DHT22;2583;50.946;6.954;2022-10-31T03:16:26;14.70;99.90
5130;DHT22;2583;50.946;6.954;2022-10-31T03:21:32;14.60;99.90
5130;DHT22;2583;50.946;6.954;2022-10-31T03:24:01;14.60;99.90
5130;DHT22;2583;50.946;6.954;2022-10-31T03:26:28;14.60;99.90
5130;DHT22;2583;50.946;6.954;2022-10-31T03:29:05;14.50;99.90
5130;DHT22;2583;50.946;6.954;2022-10-31T03:31:37;14.50;99.90
5130;DHT22;2583;50.946;6.954;2022-10-31T03:34:06;14.50;99.90
5130;DHT22;2583;50.946;6.954;2022-10-31T03:36:35;14.50;99.90
5130;DHT22;2583;50.946;6.954;2022-10-31T03:39:05;14.40;99.90
5130;DHT22;2583;50.946;6.954;2022-10-31T03:41:40;14.40;99.90
5130;DHT22;2583;50.946;6.954;2022-10-31T03:44:11;14.40;99.90
5130;DHT22;2583;50.946;6.954;2022-10-31T03:46:40;14.30;99.90
5130;DHT22;2583;50.946;6.954;2022-10-31T03:49:08;14.20;99.90
5130;DHT22;2583;50.946;6.954;2022-10-31T03:51:42;14.20;99.90
5130;DHT22;2583;50.946;6.954;2022-10-31T03:54:28;14.10;99.90
5130;DHT22;2583;50.946;6.954;2022-10-31T03:57:06;14.10;99.90
5130;DHT22;2583;50.946;6.954;2022-10-31T03:59:40;14.10;99.90
5130;DHT22;2583;50.946;6.954;2022-10-31T04:02:14;14.00;99.90
5130;DHT22;2583;50.946;6.954;2022-10-31T04:04:43;14.00;99.90
5130;DHT22;2583;50.946;6.954;2022-10-31T04:07:11;14.00;99.90
5130;DHT22;2583;50.946;6.954;2022-10-31T04:09:43;14.00;99.90
5130;DHT22;2583;50.946;6.954;2022-10-31T04:12:14;14.00;99.90
5130;DHT22;2583;50.946;6.954;2022-10-31T04:14:44;14.00;99.90
5130;DHT22;2583;50.946;6.954;2022-10-31T04:17:15;14.00;99.90
5130;DHT22;2583;50.946;6.954;2022-10-31T04:19:43;14.00;99.90
5130;DHT22;2583;50.946;6.954;2022-10-31T04:22:11;14.10;99.90
5130;DHT22;2583;50.946;6.954;2022-10-31T04:24:40;14.00;99.90
5130;DHT22;2583;50.946;6.954;2022-10-31T04:27:07;14.00;99.90
5130;DHT22;2583;50.946;6.954;2022-10-31T04:29:33;14.00;99.90
5130;DHT22;2583;50.946;6.954;2022-10-31T04:32:00;14.00;99.90
5130;DHT22;2583;50.946;6.954;2022-10-31T04:34:27;14.10;99.90
5130;DHT22;2583;50.946;6.954;2022-10-31T04:36:53;14.10;99.90
5130;DHT22;2583;50.946;6.954;2022-10-31T04:39:20;14.10;99.90
5130;DHT22;2583;50.946;6.954;2022-10-31T04:41:52;14.10;99.90
5130;DHT22;2583;50.946;6.954;2022-10-31T04:44:19;14.10;99.90
5130;DHT22;2583;50.946;6.954;2022-10-31T04:46:46;14.10;99.90
5130;DHT22;2583;50.946;6.954;2022-10-31T04:49:13;14.00;99.90
5130;DHT22;2583;50.946;6.954;2022-10-31T04:51:39;14.00;99.90
5130;DHT22;2583;50.946;6.954;2022-10-31T04:54:06;13.80;99.90
5130;DHT22;2583;50.946;6.954;2022-10-31T04:56:33;13.80;99.90
5130;DHT22;2583;50.946;6.954;2022-10-31T04:59:00;13.80;99.90
5130;DHT22;2583;50.946;6.954;2022-10-31T05:01:27;13.80;99.90
5130;DHT22;2583;50.946;6.954;2022-10-31T05:03:54;13.70;99.90
5130;DHT22;2583;50.946;6.954;2022-10-31T05:06:21;13.70;99.90
5130;DHT22;2583;50.946;6.954;2022-10-31T05:08:48;13.70;99.90
5130;DHT22;2583;50.946;6.954;2022-10-31T05:11:14;13.70;99.90
5130;DHT22;2583;50.946;6.954;2022-10-31T05:13:41;13.70;99.90
5130;DHT22;2583;50.946;6.954;2022-10-31T05:16:08;13.70;99.90
5130;DHT22;2583;50.946;6.954;2022-10-31T05:18:35;13.70;99.90
5130;DHT22;2583;50.946;6.954;2022-10-31T05:21:01;13.60;99.90
5130;DHT22;2583;50.946;6.954;2022-10-31T05:23:28;13.60;99.90
5130;DHT22;2583;50.946;6.954;2022-10-31T05:25:55;13.60;99.90
5130;DHT22;2583;50.946;6.954;2022-10-31T05:28:21;13.60;99.90
5130;DHT22;2583;50.946;6.954;2022-10-31T05:30:49;13.60;99.90
5130;DHT22;2583;50.946;6.954;2022-10-31T05:33:16;13.60;99.90
5130;DHT22;2583;50.946;6.954;2022-10-31T05:35:43;13.60;99.90
5130;DHT22;2583;50.946;6.954;2022-10-31T05:38:10;13.60;99.90
5130;DHT22;2583;50.946;6.954;2022-10-31T05:40:36;13.60;99.90
5130;DHT22;2583;50.946;6.954;2022-10-31T05:43:03;13.50;99.90
5130;DHT22;2583;50.946;6.954;2022-10-31T05:45:30;13.50;99.90
5130;DHT22;2583;50.946;6.954;2022-10-31T05:48:01;13.40;99.90
5130;DHT22;2583;50.946;6.954;2022-10-31T05:50:30;13.40;99.90
5130;DHT22;2583;50.946;6.954;2022-10-31T05:52:59;13.40;99.90
5130;DHT22;2583;50.946;6.954;2022-10-31T05:55:27;13.40;99.90
5130;DHT22;2583;50.946;6.954;2022-10-31T05:57:54;13.40;99.90
5130;DHT22;2583;50.946;6.954;2022-10-31T06:00:22;13.40;99.90
5130;DHT22;2583;50.946;6.954;2022-10-31T06:02:49;13.40;99.90
5130;DHT22;2583;50.946;6.954;2022-10-31T06:05:16;13.40;99.90
5130;DHT22;2583;50.946;6.954;2022-10-31T06:07:43;13.40;99.90
5130;DHT22;2583;50.946;6.954;2022-10-31T06:10:11;13.40;99.90
5130;DHT22;2583;50.946;6.954;2022-10-31T06:12:37;13.40;99.90
5130;DHT22;2583;50.946;6.954;2022-10-31T06:15:05;13.40;99.90
5130;DHT22;2583;50.946;6.954;2022-10-31T06:17:33;13.40;99.90
5130;DHT22;2583;50.946;6.954;2022-10-31T06:20:01;13.40;99.90
5130;DHT22;2583;50.946;6.954;2022-10-31T06:22:28;13.40;99.90
5130;DHT22;2583;50.946;6.954;2022-10-31T06:24:55;13.40;99.90
5130;DHT22;2583;50.946;6.954;2022-10-31T06:27:22;13.30;99.90
5130;DHT22;2583;50.946;6.954;2022-10-31T06:29:49;13.30;99.90
5130;DHT22;2583;50.946;6.954;2022-10-31T06:32:16;13.30;99.90
5130;DHT22;2583;50.946;6.954;2022-10-31T06:34:43;13.30;99.90
5130;DHT22;2583;50.946;6.954;2022-10-31T06:37:11;13.20;99.90
5130;DHT22;2583;50.946;6.954;2022-10-31T06:39:38;13.20;99.90
5130;DHT22;2583;50.946;6.954;2022-10-31T06:42:05;13.20;99.90
5130;DHT22;2583;50.946;6.954;2022-10-31T06:44:32;13.20;99.90
5130;DHT22;2583;50.946;6.954;2022-10-31T06:46:59;13.20;99.90
5130;DHT22;2583;50.946;6.954;2022-10-31T06:49:26;13.20;99.90
5130;DHT22;2583;50.946;6.954;2022-10-31T06:51:53;13.10;99.90
5130;DHT22;2583;50.946;6.954;2022-10-31T06:54:19;13.10;99.90
5130;DHT22;2583;50.946;6.954;2022-10-31T06:56:46;13.10;99.90
5130;DHT22;2583;50.946;6.954;2022-10-31T06:59:14;13.10;99.90
5130;DHT22;2583;50.946;6.954;2022-10-31T07:01:41;13.10;99.90
5130;DHT22;2583;50.946;6.954;2022-10-31T07:04:11;13.10;99.90
5130;DHT22;2583;50.946;6.954;2022-10-31T07:06:38;13.10;99.90
5130;DHT22;2583;50.946;6.954;2022-10-31T07:09:05;13.20;99.90
5130;DHT22;2583;50.946;6.954;2022-10-31T07:11:32;13.20;99.90
5130;DHT22;2583;50.946;6.954;2022-10-31T07:13:59;13.20;99.90
5130;DHT22;2583;50.946;6.954;2022-10-31T07:16:26;13.30;99.90
5130;DHT22;2583;50.946;6.954;2022-10-31T07:18:52;13.30;99.90
5130;DHT22;2583;50.946;6.954;2022-10-31T07:21:19;13.40;99.90
5130;DHT22;2583;50.946;6.954;2022-10-31T07:23:49;13.40;99.90
5130;DHT22;2583;50.946;6.954;2022-10-31T07:26:16;13.40;99.90
5130;DHT22;2583;50.946;6.954;2022-10-31T07:28:42;13.50;99.90
5130;DHT22;2583;50.946;6.954;2022-10-31T07:31:09;13.50;99.90
5130;DHT22;2583;50.946;6.954;2022-10-31T07:33:36;13.50;99.90
5130;DHT22;2583;50.946;6.954;2022-10-31T07:36:03;13.60;99.90
5130;DHT22;2583;50.946;6.954;2022-10-31T07:38:29;13.70;99.90
5130;DHT22;2583;50.946;6.954;2022-10-31T07:40:56;13.80;99.90
5130;DHT22;2583;50.946;6.954;2022-10-31T07:43:23;13.70;99.90
5130;DHT22;2583;50.946;6.954;2022-10-31T07:45:51;13.80;99.90
5130;DHT22;2583;50.946;6.954;2022-10-31T07:48:18;13.80;99.90
5130;DHT22;2583;50.946;6.954;2022-10-31T07:50:45;13.80;99.90
5130;DHT22;2583;50.946;6.954;2022-10-31T07:53:14;13.80;99.90
5130;DHT22;2583;50.946;6.954;2022-10-31T07:55:41;13.90;99.90
5130;DHT22;2583;50.946;6.954;2022-10-31T07:58:16;13.90;99.90
5130;DHT22;2583;50.946;6.954;2022-10-31T08:00:44;14.00;99.90
5130;DHT22;2583;50.946;6.954;2022-10-31T08:03:14;14.00;99.90
5130;DHT22;2583;50.946;6.954;2022-10-31T08:05:41;14.00;99.90
5130;DHT22;2583;50.946;6.954;2022-10-31T08:08:08;14.00;99.90
5130;DHT22;2583;50.946;6.954;2022-10-31T08:10:35;14.00;99.90
5130;DHT22;2583;50.946;6.954;2022-10-31T08:13:07;14.00;99.90
5130;DHT22;2583;50.946;6.954;2022-10-31T08:15:35;14.10;99.90
5130;DHT22;2583;50.946;6.954;2022-10-31T08:18:05;14.00;99.90
5130;DHT22;2583;50.946;6.954;2022-10-31T08:20:32;14.00;99.90
5130;DHT22;2583;50.946;6.954;2022-10-31T08:23:04;14.00;99.90
5130;DHT22;2583;50.946;6.954;2022-10-31T08:25:33;14.00;99.90
5130;DHT22;2583;50.946;6.954;2022-10-31T08:28:05;14.00;99.90
5130;DHT22;2583;50.946;6.954;2022-10-31T08:30:33;14.00;99.90
5130;DHT22;2583;50.946;6.954;2022-10-31T08:35:35;13.90;99.90
5130;DHT22;2583;50.946;6.954;2022-10-31T08:38:02;14.00;99.90
5130;DHT22;2583;50.946;6.954;2022-10-31T08:40:31;14.10;99.90
5130;DHT22;2583;50.946;6.954;2022-10-31T08:43:04;14.10;99.90
5130;DHT22;2583;50.946;6.954;2022-10-31T08:45:33;14.20;99.90
5130;DHT22;2583;50.946;6.954;2022-10-31T08:48:01;14.20;99.90
5130;DHT22;2583;50.946;6.954;2022-10-31T08:50:31;14.30;99.90
5130;DHT22;2583;50.946;6.954;2022-10-31T08:53:06;14.30;99.90
5130;DHT22;2583;50.946;6.954;2022-10-31T08:55:37;14.40;99.90
5130;DHT22;2583;50.946;6.954;2022-10-31T08:58:06;14.50;99.90
5130;DHT22;2583;50.946;6.954;2022-10-31T09:00:34;14.60;99.90
5130;DHT22;2583;50.946;6.954;2022-10-31T09:03:03;14.60;99.90
5130;DHT22;2583;50.946;6.954;2022-10-31T09:05:30;14.70;99.90
5130;DHT22;2583;50.946;6.954;2022-10-31T09:07:58;14.80;99.90
5130;DHT22;2583;50.946;6.954;2022-10-31T09:10:27;14.80;99.90
5130;DHT22;2583;50.946;6.954;2022-10-31T09:13:06;14.90;99.90
5130;DHT22;2583;50.946;6.954;2022-10-31T09:15:38;15.00;99.90
5130;DHT22;2583;50.946;6.954;2022-10-31T09:18:06;15.00;99.90
5130;DHT22;2583;50.946;6.954;2022-10-31T09:20:34;15.00;99.90
5130;DHT22;2583;50.946;6.954;2022-10-31T09:23:03;15.10;99.90
5130;DHT22;2583;50.946;6.954;2022-10-31T09:25:32;15.20;99.90
5130;DHT22;2583;50.946;6.954;2022-10-31T09:28:00;15.20;99.90
5130;DHT22;2583;50.946;6.954;2022-10-31T09:30:29;15.20;99.90
5130;DHT22;2583;50.946;6.954;2022-10-31T09:33:01;15.30;99.90
5130;DHT22;2583;50.946;6.954;2022-10-31T09:35:29;15.30;99.90
5130;DHT22;2583;50.946;6.954;2022-10-31T09:40:37;15.30;99.90
5130;DHT22;2583;50.946;6.954;2022-10-31T09:46:09;15.50;99.90
5130;DHT22;2583;50.946;6.954;2022-10-31T09:51:36;15.80;99.90
5130;DHT22;2583;50.946;6.954;2022-10-31T09:56:57;16.20;99.90
5130;DHT22;2583;50.946;6.954;2022-10-31T09:59:31;16.40;99.90
5130;DHT22;2583;50.946;6.954;2022-10-31T10:07:11;16.90;99.90
5130;DHT22;2583;50.946;6.954;2022-10-31T10:09:40;17.10;99.90
5130;DHT22;2583;50.946;6.954;2022-10-31T10:12:24;17.30;99.90
5130;DHT22;2583;50.946;6.954;2022-10-31T10:20:49;17.60;99.90
5130;DHT22;2583;50.946;6.954;2022-10-31T10:28:42;18.10;96.50
5130;DHT22;2583;50.946;6.954;2022-10-31T10:31:23;18.20;97.10
5130;DHT22;2583;50.946;6.954;2022-10-31T10:34:02;18.30;95.20
5130;DHT22;2583;50.946;6.954;2022-10-31T10:36:46;18.20;95.20
5130;DHT22;2583;50.946;6.954;2022-10-31T10:39:37;18.10;96.10
5130;DHT22;2583;50.946;6.954;2022-10-31T10:42:12;18.30;96.60
5130;DHT22;2583;50.946;6.954;2022-10-31T10:44:57;18.50;94.80
5130;DHT22;2583;50.946;6.954;2022-10-31T10:47:50;18.60;94.20
5130;DHT22;2583;50.946;6.954;2022-10-31T10:50:22;18.70;93.80
5130;DHT22;2583;50.946;6.954;2022-10-31T10:56:11;18.80;92.70
5130;DHT22;2583;50.946;6.954;2022-10-31T10:58:41;18.70;92.50
5130;DHT22;2583;50.946;6.954;2022-10-31T11:01:14;18.70;93.80
5130;DHT22;2583;50.946;6.954;2022-10-31T11:03:45;18.70;93.70
5130;DHT22;2583;50.946;6.954;2022-10-31T11:06:17;18.70;94.30
5130;DHT22;2583;50.946;6.954;2022-10-31T11:08:48;18.70;92.30
5130;DHT22;2583;50.946;6.954;2022-10-31T11:13:46;18.70;92.00
5130;DHT22;2583;50.946;6.954;2022-10-31T11:16:35;18.70;92.00
5130;DHT22;2583;50.946;6.954;2022-10-31T11:19:24;18.80;90.60
5130;DHT22;2583;50.946;6.954;2022-10-31T11:21:53;18.90;91.10
5130;DHT22;2583;50.946;6.954;2022-10-31T11:24:22;18.90;91.40
5130;DHT22;2583;50.946;6.954;2022-10-31T11:26:50;18.90;90.40
5130;DHT22;2583;50.946;6.954;2022-10-31T11:29:22;19.00;91.30
5130;DHT22;2583;50.946;6.954;2022-10-31T11:31:57;19.00;89.70
5130;DHT22;2583;50.946;6.954;2022-10-31T11:34:33;19.00;91.50
5130;DHT22;2583;50.946;6.954;2022-10-31T11:37:09;18.90;91.10
5130;DHT22;2583;50.946;6.954;2022-10-31T11:39:44;19.00;91.60
5130;DHT22;2583;50.946;6.954;2022-10-31T11:42:11;19.00;91.20
5130;DHT22;2583;50.946;6.954;2022-10-31T11:44:42;18.90;91.50
5130;DHT22;2583;50.946;6.954;2022-10-31T11:47:14;19.00;91.70
5130;DHT22;2583;50.946;6.954;2022-10-31T11:49:46;19.10;92.10
5130;DHT22;2583;50.946;6.954;2022-10-31T11:55:29;19.20;90.40
5130;DHT22;2583;50.946;6.954;2022-10-31T11:57:57;19.20;90.10
5130;DHT22;2583;50.946;6.954;2022-10-31T12:00:26;19.20;88.40
5130;DHT22;2583;50.946;6.954;2022-10-31T12:06:00;19.40;85.20
5130;DHT22;2583;50.946;6.954;2022-10-31T12:08:34;19.50;83.80
5130;DHT22;2583;50.946;6.954;2022-10-31T12:14:06;19.50;79.10
5130;DHT22;2583;50.946;6.954;2022-10-31T12:16:56;19.60;77.80
5130;DHT22;2583;50.946;6.954;2022-10-31T12:31:01;20.00;69.70
5130;DHT22;2583;50.946;6.954;2022-10-31T12:33:51;20.10;66.60
5130;DHT22;2583;50.946;6.954;2022-10-31T12:41:52;20.20;62.30
5130;DHT22;2583;50.946;6.954;2022-10-31T12:45:25;20.20;63.00
5130;DHT22;2583;50.946;6.954;2022-10-31T12:47:53;20.20;61.00
5130;DHT22;2583;50.946;6.954;2022-10-31T12:58:59;20.10;60.50
5130;DHT22;2583;50.946;6.954;2022-10-31T13:01:45;20.00;60.90
5130;DHT22;2583;50.946;6.954;2022-10-31T13:04:38;19.90;62.20
5130;DHT22;2583;50.946;6.954;2022-10-31T13:07:15;19.90;62.70
5130;DHT22;2583;50.946;6.954;2022-10-31T13:09:54;19.80;64.60
5130;DHT22;2583;50.946;6.954;2022-10-31T13:12:24;19.90;64.00
5130;DHT22;2583;50.946;6.954;2022-10-31T13:14:55;19.80;64.10
5130;DHT22;2583;50.946;6.954;2022-10-31T13:17:42;19.90;65.10
5130;DHT22;2583;50.946;6.954;2022-10-31T13:20:17;19.90;65.50
5130;DHT22;2583;50.946;6.954;2022-10-31T13:22:46;19.90;64.30
5130;DHT22;2583;50.946;6.954;2022-10-31T13:25:17;20.00;65.50
5130;DHT22;2583;50.946;6.954;2022-10-31T13:27:51;20.00;63.90
5130;DHT22;2583;50.946;6.954;2022-10-31T13:30:21;20.10;63.10
5130;DHT22;2583;50.946;6.954;2022-10-31T13:32:50;20.00;61.30
5130;DHT22;2583;50.946;6.954;2022-10-31T13:40:55;20.00;63.00
5130;DHT22;2583;50.946;6.954;2022-10-31T13:43:32;20.00;63.10
5130;DHT22;2583;50.946;6.954;2022-10-31T13:46:02;20.00;63.10
5130;DHT22;2583;50.946;6.954;2022-10-31T13:48:47;19.90;63.10
5130;DHT22;2583;50.946;6.954;2022-10-31T13:51:27;19.80;64.60
5130;DHT22;2583;50.946;6.954;2022-10-31T13:54:21;19.70;66.30
5130;DHT22;2583;50.946;6.954;2022-10-31T13:56:51;19.70;68.80
5130;DHT22;2583;50.946;6.954;2022-10-31T13:59:25;19.70;72.00
5130;DHT22;2583;50.946;6.954;2022-10-31T14:02:12;19.60;71.60
5130;DHT22;2583;50.946;6.954;2022-10-31T14:04:52;19.60;73.10
5130;DHT22;2583;50.946;6.954;2022-10-31T14:07:26;19.60;74.20
5130;DHT22;2583;50.946;6.954;2022-10-31T14:10:16;19.60;76.10
5130;DHT22;2583;50.946;6.954;2022-10-31T14:12:47;19.60;75.80
5130;DHT22;2583;50.946;6.954;2022-10-31T14:15:25;19.60;77.80
5130;DHT22;2583;50.946;6.954;2022-10-31T14:18:04;19.50;78.60
5130;DHT22;2583;50.946;6.954;2022-10-31T14:20:36;19.50;80.00
5130;DHT22;2583;50.946;6.954;2022-10-31T14:28:50;19.50;82.00
5130;DHT22;2583;50.946;6.954;2022-10-31T14:34:17;19.50;81.30
5130;DHT22;2583;50.946;6.954;2022-10-31T14:39:40;19.40;81.70
5130;DHT22;2583;50.946;6.954;2022-10-31T14:47:36;19.40;81.30
5130;DHT22;2583;50.946;6.954;2022-10-31T14:52:54;19.40;81.40
5130;DHT22;2583;50.946;6.954;2022-10-31T14:55:23;19.40;80.70
5130;DHT22;2583;50.946;6.954;2022-10-31T14:57:57;19.40;79.60
5130;DHT22;2583;50.946;6.954;2022-10-31T15:00:26;19.40;80.80
5130;DHT22;2583;50.946;6.954;2022-10-31T15:03:22;19.40;78.70
5130;DHT22;2583;50.946;6.954;2022-10-31T15:05:54;19.50;79.10
5130;DHT22;2583;50.946;6.954;2022-10-31T15:08:32;19.40;80.20
5130;DHT22;2583;50.946;6.954;2022-10-31T15:11:10;19.30;79.20
5130;DHT22;2583;50.946;6.954;2022-10-31T15:13:49;19.30;80.80
5130;DHT22;2583;50.946;6.954;2022-10-31T15:16:25;19.30;81.20
5130;DHT22;2583;50.946;6.954;2022-10-31T15:18:59;19.30;81.10
5130;DHT22;2583;50.946;6.954;2022-10-31T15:21:28;19.20;81.10
5130;DHT22;2583;50.946;6.954;2022-10-31T15:24:00;19.20;80.80
5130;DHT22;2583;50.946;6.954;2022-10-31T15:26:39;19.20;79.90
5130;DHT22;2583;50.946;6.954;2022-10-31T15:29:14;19.20;81.30
5130;DHT22;2583;50.946;6.954;2022-10-31T15:31:56;19.10;80.80
5130;DHT22;2583;50.946;6.954;2022-10-31T15:34:40;19.00;80.40
5130;DHT22;2583;50.946;6.954;2022-10-31T15:37:15;19.00;81.20
5130;DHT22;2583;50.946;6.954;2022-10-31T15:39:43;19.00;82.50
5130;DHT22;2583;50.946;6.954;2022-10-31T15:42:27;18.90;81.90
5130;DHT22;2583;50.946;6.954;2022-10-31T15:45:01;18.90;82.10
5130;DHT22;2583;50.946;6.954;2022-10-31T15:47:31;18.80;83.50
5130;DHT22;2583;50.946;6.954;2022-10-31T15:49:59;18.70;83.30
5130;DHT22;2583;50.946;6.954;2022-10-31T15:52:53;18.70;84.60
5130;DHT22;2583;50.946;6.954;2022-10-31T15:55:22;18.70;85.90
5130;DHT22;2583;50.946;6.954;2022-10-31T15:57:52;18.60;84.90
5130;DHT22;2583;50.946;6.954;2022-10-31T16:00:30;18.60;85.30
5130;DHT22;2583;50.946;6.954;2022-10-31T16:08:44;18.40;89.20
5130;DHT22;2583;50.946;6.954;2022-10-31T16:13:53;18.30;90.50
5130;DHT22;2583;50.946;6.954;2022-10-31T16:16:21;18.30;90.50
5130;DHT22;2583;50.946;6.954;2022-10-31T16:19:05;18.30;91.30
5130;DHT22;2583;50.946;6.954;2022-10-31T16:21:39;18.20;91.80
5130;DHT22;2583;50.946;6.954;2022-10-31T16:24:29;18.20;92.20
5130;DHT22;2583;50.946;6.954;2022-10-31T16:27:07;18.10;93.30
5130;DHT22;2583;50.946;6.954;2022-10-31T16:29:44;18.10;93.40
5130;DHT22;2583;50.946;6.954;2022-10-31T16:32:36;18.10;93.60
5130;DHT22;2583;50.946;6.954;2022-10-31T16:37:40;18.00;95.00
5130;DHT22;2583;50.946;6.954;2022-10-31T16:40:11;18.00;95.60
5130;DHT22;2583;50.946;6.954;2022-10-31T16:42:42;18.00;95.70
5130;DHT22;2583;50.946;6.954;2022-10-31T16:45:20;18.00;96.30
5130;DHT22;2583;50.946;6.954;2022-10-31T16:47:48;18.00;96.40
5130;DHT22;2583;50.946;6.954;2022-10-31T16:50:26;18.00;96.70
5130;DHT22;2583;50.946;6.954;2022-10-31T16:52:53;18.00;96.60
5130;DHT22;2583;50.946;6.954;2022-10-31T16:56:01;18.00;96.90
5130;DHT22;2583;50.946;6.954;2022-10-31T16:58:30;17.90;97.60
5130;DHT22;2583;50.946;6.954;2022-10-31T17:00:59;17.90;97.20
5130;DHT22;2583;50.946;6.954;2022-10-31T17:03:27;17.90;97.20
5130;DHT22;2583;50.946;6.954;2022-10-31T17:05:54;17.90;97.60
5130;DHT22;2583;50.946;6.954;2022-10-31T17:08:22;17.90;97.40
5130;DHT22;2583;50.946;6.954;2022-10-31T17:10:52;17.90;97.40
5130;DHT22;2583;50.946;6.954;2022-10-31T17:13:25;17.90;97.70
5130;DHT22;2583;50.946;6.954;2022-10-31T17:15:55;17.80;98.00
5130;DHT22;2583;50.946;6.954;2022-10-31T17:18:22;17.80;98.10
5130;DHT22;2583;50.946;6.954;2022-10-31T17:20:58;17.80;98.50
5130;DHT22;2583;50.946;6.954;2022-10-31T17:23:26;17.80;98.80
5130;DHT22;2583;50.946;6.954;2022-10-31T17:25:53;17.80;98.20
5130;DHT22;2583;50.946;6.954;2022-10-31T17:28:20;17.70;98.80
5130;DHT22;2583;50.946;6.954;2022-10-31T17:30:47;17.70;98.80
5130;DHT22;2583;50.946;6.954;2022-10-31T17:33:15;17.70;98.90
5130;DHT22;2583;50.946;6.954;2022-10-31T17:35:43;17.70;98.80
5130;DHT22;2583;50.946;6.954;2022-10-31T17:38:12;17.70;98.30
5130;DHT22;2583;50.946;6.954;2022-10-31T17:40:40;17.70;98.00
5130;DHT22;2583;50.946;6.954;2022-10-31T17:43:09;17.70;97.20
5130;DHT22;2583;50.946;6.954;2022-10-31T17:45:38;17.70;97.30
5130;DHT22;2583;50.946;6.954;2022-10-31T17:48:05;17.70;97.30
5130;DHT22;2583;50.946;6.954;2022-10-31T17:50:32;17.70;97.80
5130;DHT22;2583;50.946;6.954;2022-10-31T17:52:58;17.70;97.00
5130;DHT22;2583;50.946;6.954;2022-10-31T17:55:26;17.60;96.70
5130;DHT22;2583;50.946;6.954;2022-10-31T17:57:52;17.60;96.60
5130;DHT22;2583;50.946;6.954;2022-10-31T18:00:19;17.60;97.00
5130;DHT22;2583;50.946;6.954;2022-10-31T18:02:48;17.60;96.50
5130;DHT22;2583;50.946;6.954;2022-10-31T18:05:15;17.60;96.50
5130;DHT22;2583;50.946;6.954;2022-10-31T18:07:42;17.60;96.70
5130;DHT22;2583;50.946;6.954;2022-10-31T18:10:09;17.60;96.60
5130;DHT22;2583;50.946;6.954;2022-10-31T18:12:36;17.60;96.60
5130;DHT22;2583;50.946;6.954;2022-10-31T18:15:04;17.60;96.90
5130;DHT22;2583;50.946;6.954;2022-10-31T18:17:31;17.60;96.80
5130;DHT22;2583;50.946;6.954;2022-10-31T18:19:58;17.50;97.20
5130;DHT22;2583;50.946;6.954;2022-10-31T18:22:25;17.60;97.00
5130;DHT22;2583;50.946;6.954;2022-10-31T18:24:52;17.50;97.00
5130;DHT22;2583;50.946;6.954;2022-10-31T18:27:18;17.50;97.00
5130;DHT22;2583;50.946;6.954;2022-10-31T18:29:45;17.60;96.80
5130;DHT22;2583;50.946;6.954;2022-10-31T18:32:12;17.60;97.10
5130;DHT22;2583;50.946;6.954;2022-10-31T18:34:39;17.50;97.10
5130;DHT22;2583;50.946;6.954;2022-10-31T18:37:05;17.50;97.00
5130;DHT22;2583;50.946;6.954;2022-10-31T18:39:32;17.50;97.10